sensor_id;sensor_type;location;lat;lon;timestamp;P1;durP1;ratioP1;P2;durP2;ratioP2
1402;SDS011;696;48.546;9.896;2022-08-21T00:00:21;1.30;;;0.90;;
1402;SDS011;696;48.546;9.896;2022-08-21T00:02:53;1.42;;;0.80;;
1402;SDS011;696;48.546;9.896;2022-08-21T00:05:24;17.83;;;1.90;;
1402;SDS011;696;48.546;9.896;2022-08-21T00:07:50;0.95;;;0.80;;
1402;SDS011;696;48.546;9.896;2022-08-21T00:10:16;1.25;;;0.82;;
1402;SDS011;696;48.546;9.896;2022-08-21T00:12:43;1.73;;;0.90;;
1402;SDS011;696;48.546;9.896;2022-08-21T00:15:10;2.47;;;0.93;;
1402;SDS011;696;48.546;9.896;2022-08-21T00:17:36;1.60;;;0.80;;
1402;SDS011;696;48.546;9.896;2022-08-21T00:20:06;2.65;;;0.88;;
1402;SDS011;696;48.546;9.896;2022-08-21T00:22:33;1.15;;;0.80;;
1402;SDS011;696;48.546;9.896;2022-08-21T00:24:59;2.08;;;1.35;;
1402;SDS011;696;48.546;9.896;2022-08-21T00:27:24;0.70;;;0.60;;
1402;SDS011;696;48.546;9.896;2022-08-21T00:29:50;0.82;;;0.77;;
1402;SDS011;696;48.546;9.896;2022-08-21T00:32:19;1.85;;;0.73;;
1402;SDS011;696;48.546;9.896;2022-08-21T00:34:46;1.40;;;1.30;;
1402;SDS011;696;48.546;9.896;2022-08-21T00:37:11;1.02;;;0.98;;
1402;SDS011;696;48.546;9.896;2022-08-21T00:39:37;0.98;;;0.98;;
1402;SDS011;696;48.546;9.896;2022-08-21T00:42:03;1.88;;;0.80;;
1402;SDS011;696;48.546;9.896;2022-08-21T00:44:28;0.85;;;0.85;;
1402;SDS011;696;48.546;9.896;2022-08-21T00:46:53;1.23;;;1.00;;
1402;SDS011;696;48.546;9.896;2022-08-21T00:49:19;1.13;;;1.00;;
1402;SDS011;696;48.546;9.896;2022-08-21T00:54:12;1.48;;;0.98;;
1402;SDS011;696;48.546;9.896;2022-08-21T00:56:39;2.78;;;0.93;;
1402;SDS011;696;48.546;9.896;2022-08-21T00:59:05;2.00;;;0.80;;
1402;SDS011;696;48.546;9.896;2022-08-21T01:01:31;1.02;;;0.60;;
1402;SDS011;696;48.546;9.896;2022-08-21T01:03:56;2.40;;;0.85;;
1402;SDS011;696;48.546;9.896;2022-08-21T01:06:22;2.78;;;1.00;;
1402;SDS011;696;48.546;9.896;2022-08-21T01:08:47;4.03;;;1.77;;
1402;SDS011;696;48.546;9.896;2022-08-21T01:11:13;3.38;;;1.45;;
1402;SDS011;696;48.546;9.896;2022-08-21T01:13:40;2.70;;;1.08;;
1402;SDS011;696;48.546;9.896;2022-08-21T01:16:09;1.45;;;1.13;;
1402;SDS011;696;48.546;9.896;2022-08-21T01:18:35;1.35;;;1.00;;
1402;SDS011;696;48.546;9.896;2022-08-21T01:21:08;3.78;;;1.08;;
1402;SDS011;696;48.546;9.896;2022-08-21T01:23:36;3.85;;;1.20;;
1402;SDS011;696;48.546;9.896;2022-08-21T01:26:04;4.30;;;1.20;;
1402;SDS011;696;48.546;9.896;2022-08-21T01:28:31;3.83;;;0.70;;
1402;SDS011;696;48.546;9.896;2022-08-21T01:31:00;3.10;;;1.13;;
1402;SDS011;696;48.546;9.896;2022-08-21T01:33:27;2.72;;;1.27;;
1402;SDS011;696;48.546;9.896;2022-08-21T01:35:52;1.30;;;1.20;;
1402;SDS011;696;48.546;9.896;2022-08-21T01:38:18;2.08;;;0.85;;
1402;SDS011;696;48.546;9.896;2022-08-21T01:40:43;3.92;;;1.25;;
1402;SDS011;696;48.546;9.896;2022-08-21T01:43:08;1.05;;;0.93;;
1402;SDS011;696;48.546;9.896;2022-08-21T01:45:34;3.65;;;0.90;;
1402;SDS011;696;48.546;9.896;2022-08-21T01:47:59;6.25;;;1.23;;
1402;SDS011;696;48.546;9.896;2022-08-21T01:50:25;1.23;;;0.90;;
1402;SDS011;696;48.546;9.896;2022-08-21T01:52:50;0.90;;;0.90;;
1402;SDS011;696;48.546;9.896;2022-08-21T01:55:17;0.95;;;0.93;;
1402;SDS011;696;48.546;9.896;2022-08-21T01:57:43;3.13;;;1.27;;
1402;SDS011;696;48.546;9.896;2022-08-21T02:00:10;2.22;;;1.38;;
1402;SDS011;696;48.546;9.896;2022-08-21T02:02:38;1.15;;;0.93;;
1402;SDS011;696;48.546;9.896;2022-08-21T02:05:04;1.48;;;0.70;;
1402;SDS011;696;48.546;9.896;2022-08-21T02:07:44;1.23;;;1.13;;
1402;SDS011;696;48.546;9.896;2022-08-21T02:10:12;1.50;;;1.00;;
1402;SDS011;696;48.546;9.896;2022-08-21T02:12:39;1.95;;;1.08;;
1402;SDS011;696;48.546;9.896;2022-08-21T02:15:05;1.30;;;1.13;;
1402;SDS011;696;48.546;9.896;2022-08-21T02:17:41;7.18;;;1.30;;
1402;SDS011;696;48.546;9.896;2022-08-21T02:20:14;1.30;;;0.93;;
1402;SDS011;696;48.546;9.896;2022-08-21T02:22:42;3.40;;;1.77;;
1402;SDS011;696;48.546;9.896;2022-08-21T02:25:07;4.32;;;1.50;;
1402;SDS011;696;48.546;9.896;2022-08-21T02:27:42;2.25;;;1.15;;
1402;SDS011;696;48.546;9.896;2022-08-21T02:30:29;1.23;;;1.13;;
1402;SDS011;696;48.546;9.896;2022-08-21T02:32:58;1.45;;;0.90;;
1402;SDS011;696;48.546;9.896;2022-08-21T02:35:24;2.75;;;1.50;;
1402;SDS011;696;48.546;9.896;2022-08-21T02:37:54;4.28;;;0.98;;
1402;SDS011;696;48.546;9.896;2022-08-21T02:40:25;2.13;;;1.10;;
1402;SDS011;696;48.546;9.896;2022-08-21T02:42:53;1.48;;;0.95;;
1402;SDS011;696;48.546;9.896;2022-08-21T02:45:18;3.42;;;1.20;;
1402;SDS011;696;48.546;9.896;2022-08-21T02:47:51;2.55;;;1.10;;
1402;SDS011;696;48.546;9.896;2022-08-21T02:50:19;2.90;;;1.52;;
1402;SDS011;696;48.546;9.896;2022-08-21T02:52:46;4.30;;;0.90;;
1402;SDS011;696;48.546;9.896;2022-08-21T02:55:12;2.50;;;0.90;;
1402;SDS011;696;48.546;9.896;2022-08-21T02:57:37;5.45;;;0.70;;
1402;SDS011;696;48.546;9.896;2022-08-21T03:00:04;2.60;;;1.27;;
1402;SDS011;696;48.546;9.896;2022-08-21T03:02:30;1.70;;;1.10;;
1402;SDS011;696;48.546;9.896;2022-08-21T03:04:55;1.77;;;1.05;;
1402;SDS011;696;48.546;9.896;2022-08-21T03:07:21;1.33;;;0.85;;
1402;SDS011;696;48.546;9.896;2022-08-21T03:09:47;4.93;;;1.20;;
1402;SDS011;696;48.546;9.896;2022-08-21T03:12:12;3.00;;;1.10;;
1402;SDS011;696;48.546;9.896;2022-08-21T03:14:37;1.88;;;0.80;;
1402;SDS011;696;48.546;9.896;2022-08-21T03:17:03;1.05;;;0.70;;
1402;SDS011;696;48.546;9.896;2022-08-21T03:19:29;1.30;;;0.90;;
1402;SDS011;696;48.546;9.896;2022-08-21T03:21:54;1.95;;;1.15;;
1402;SDS011;696;48.546;9.896;2022-08-21T03:24:20;5.05;;;0.77;;
1402;SDS011;696;48.546;9.896;2022-08-21T03:26:45;4.25;;;0.88;;
1402;SDS011;696;48.546;9.896;2022-08-21T03:29:10;2.95;;;1.00;;
1402;SDS011;696;48.546;9.896;2022-08-21T03:31:36;6.70;;;0.75;;
1402;SDS011;696;48.546;9.896;2022-08-21T03:34:01;2.15;;;0.65;;
1402;SDS011;696;48.546;9.896;2022-08-21T03:36:26;0.80;;;0.80;;
1402;SDS011;696;48.546;9.896;2022-08-21T03:38:52;1.25;;;0.88;;
1402;SDS011;696;48.546;9.896;2022-08-21T03:41:17;7.53;;;1.27;;
1402;SDS011;696;48.546;9.896;2022-08-21T03:43:42;3.33;;;1.10;;
1402;SDS011;696;48.546;9.896;2022-08-21T03:46:08;1.13;;;0.95;;
1402;SDS011;696;48.546;9.896;2022-08-21T03:48:34;4.85;;;1.35;;
1402;SDS011;696;48.546;9.896;2022-08-21T03:51:00;3.20;;;1.27;;
1402;SDS011;696;48.546;9.896;2022-08-21T03:53:26;1.60;;;1.05;;
1402;SDS011;696;48.546;9.896;2022-08-21T03:55:51;1.75;;;0.90;;
1402;SDS011;696;48.546;9.896;2022-08-21T03:58:18;1.50;;;0.95;;
1402;SDS011;696;48.546;9.896;2022-08-21T04:00:46;1.00;;;0.90;;
1402;SDS011;696;48.546;9.896;2022-08-21T04:03:15;0.95;;;0.80;;
1402;SDS011;696;48.546;9.896;2022-08-21T04:05:41;1.27;;;1.00;;
1402;SDS011;696;48.546;9.896;2022-08-21T04:08:06;3.92;;;1.52;;
1402;SDS011;696;48.546;9.896;2022-08-21T04:10:32;1.80;;;1.40;;
1402;SDS011;696;48.546;9.896;2022-08-21T04:12:59;1.92;;;1.17;;
1402;SDS011;696;48.546;9.896;2022-08-21T04:15:25;2.15;;;0.88;;
1402;SDS011;696;48.546;9.896;2022-08-21T04:17:51;1.83;;;1.20;;
1402;SDS011;696;48.546;9.896;2022-08-21T04:20:17;3.00;;;1.75;;
1402;SDS011;696;48.546;9.896;2022-08-21T04:22:43;2.35;;;1.40;;
1402;SDS011;696;48.546;9.896;2022-08-21T04:25:09;2.38;;;0.90;;
1402;SDS011;696;48.546;9.896;2022-08-21T04:27:35;1.30;;;1.15;;
1402;SDS011;696;48.546;9.896;2022-08-21T04:30:01;1.42;;;1.25;;
1402;SDS011;696;48.546;9.896;2022-08-21T04:32:28;1.80;;;0.90;;
1402;SDS011;696;48.546;9.896;2022-08-21T04:35:00;1.55;;;1.13;;
1402;SDS011;696;48.546;9.896;2022-08-21T04:37:29;1.42;;;0.98;;
1402;SDS011;696;48.546;9.896;2022-08-21T04:39:54;1.70;;;1.17;;
1402;SDS011;696;48.546;9.896;2022-08-21T04:42:23;1.17;;;1.02;;
1402;SDS011;696;48.546;9.896;2022-08-21T04:44:51;4.78;;;1.00;;
1402;SDS011;696;48.546;9.896;2022-08-21T04:47:17;4.97;;;1.30;;
1402;SDS011;696;48.546;9.896;2022-08-21T04:49:43;1.75;;;1.40;;
1402;SDS011;696;48.546;9.896;2022-08-21T04:52:09;1.38;;;0.90;;
1402;SDS011;696;48.546;9.896;2022-08-21T04:54:35;3.05;;;1.40;;
1402;SDS011;696;48.546;9.896;2022-08-21T04:57:01;1.10;;;0.93;;
1402;SDS011;696;48.546;9.896;2022-08-21T04:59:35;1.05;;;0.60;;
1402;SDS011;696;48.546;9.896;2022-08-21T05:04:30;4.57;;;1.30;;
1402;SDS011;696;48.546;9.896;2022-08-21T05:06:59;1.38;;;0.80;;
1402;SDS011;696;48.546;9.896;2022-08-21T05:09:27;0.73;;;0.70;;
1402;SDS011;696;48.546;9.896;2022-08-21T05:11:53;4.20;;;1.40;;
1402;SDS011;696;48.546;9.896;2022-08-21T05:14:19;1.60;;;1.23;;
1402;SDS011;696;48.546;9.896;2022-08-21T05:16:45;2.72;;;1.08;;
1402;SDS011;696;48.546;9.896;2022-08-21T05:19:11;4.00;;;1.17;;
1402;SDS011;696;48.546;9.896;2022-08-21T05:21:39;1.52;;;1.17;;
1402;SDS011;696;48.546;9.896;2022-08-21T05:24:07;2.28;;;1.35;;
1402;SDS011;696;48.546;9.896;2022-08-21T05:26:33;1.88;;;1.35;;
1402;SDS011;696;48.546;9.896;2022-08-21T05:28:59;3.13;;;1.58;;
1402;SDS011;696;48.546;9.896;2022-08-21T05:31:28;1.08;;;0.85;;
1402;SDS011;696;48.546;9.896;2022-08-21T05:33:53;6.28;;;1.65;;
1402;SDS011;696;48.546;9.896;2022-08-21T05:36:19;7.45;;;1.45;;
1402;SDS011;696;48.546;9.896;2022-08-21T05:38:44;4.25;;;1.10;;
1402;SDS011;696;48.546;9.896;2022-08-21T05:41:09;2.30;;;1.13;;
1402;SDS011;696;48.546;9.896;2022-08-21T05:43:35;2.85;;;1.00;;
1402;SDS011;696;48.546;9.896;2022-08-21T05:46:04;3.13;;;1.35;;
1402;SDS011;696;48.546;9.896;2022-08-21T05:48:33;1.67;;;1.05;;
1402;SDS011;696;48.546;9.896;2022-08-21T05:51:04;1.30;;;1.13;;
1402;SDS011;696;48.546;9.896;2022-08-21T05:53:34;1.58;;;1.27;;
1402;SDS011;696;48.546;9.896;2022-08-21T05:56:00;2.30;;;1.73;;
1402;SDS011;696;48.546;9.896;2022-08-21T05:58:28;1.58;;;1.08;;
1402;SDS011;696;48.546;9.896;2022-08-21T06:00:54;2.58;;;1.33;;
1402;SDS011;696;48.546;9.896;2022-08-21T06:03:23;6.20;;;1.77;;
1402;SDS011;696;48.546;9.896;2022-08-21T06:05:50;1.98;;;1.63;;
1402;SDS011;696;48.546;9.896;2022-08-21T06:08:16;2.10;;;1.50;;
1402;SDS011;696;48.546;9.896;2022-08-21T06:10:43;2.45;;;1.20;;
1402;SDS011;696;48.546;9.896;2022-08-21T06:13:09;1.73;;;1.27;;
1402;SDS011;696;48.546;9.896;2022-08-21T06:15:35;4.55;;;1.60;;
1402;SDS011;696;48.546;9.896;2022-08-21T06:18:01;2.05;;;1.50;;
1402;SDS011;696;48.546;9.896;2022-08-21T06:20:26;4.28;;;1.85;;
1402;SDS011;696;48.546;9.896;2022-08-21T06:22:52;2.92;;;1.92;;
1402;SDS011;696;48.546;9.896;2022-08-21T06:25:17;3.28;;;1.80;;
1402;SDS011;696;48.546;9.896;2022-08-21T06:27:43;3.83;;;2.10;;
1402;SDS011;696;48.546;9.896;2022-08-21T06:30:09;2.95;;;1.42;;
1402;SDS011;696;48.546;9.896;2022-08-21T06:32:34;1.48;;;1.38;;
1402;SDS011;696;48.546;9.896;2022-08-21T06:35:00;3.83;;;1.98;;
1402;SDS011;696;48.546;9.896;2022-08-21T06:37:25;1.65;;;1.52;;
1402;SDS011;696;48.546;9.896;2022-08-21T06:39:52;5.32;;;2.17;;
1402;SDS011;696;48.546;9.896;2022-08-21T06:42:17;3.58;;;1.40;;
1402;SDS011;696;48.546;9.896;2022-08-21T06:44:43;2.10;;;1.45;;
1402;SDS011;696;48.546;9.896;2022-08-21T06:47:08;3.00;;;1.92;;
1402;SDS011;696;48.546;9.896;2022-08-21T06:49:34;4.55;;;2.30;;
1402;SDS011;696;48.546;9.896;2022-08-21T06:51:59;7.93;;;2.83;;
1402;SDS011;696;48.546;9.896;2022-08-21T06:54:25;2.90;;;2.03;;
1402;SDS011;696;48.546;9.896;2022-08-21T06:56:50;2.13;;;1.90;;
1402;SDS011;696;48.546;9.896;2022-08-21T06:59:16;2.42;;;1.90;;
1402;SDS011;696;48.546;9.896;2022-08-21T07:01:41;13.38;;;1.85;;
1402;SDS011;696;48.546;9.896;2022-08-21T07:04:07;8.25;;;1.77;;
1402;SDS011;696;48.546;9.896;2022-08-21T07:06:32;2.80;;;1.90;;
1402;SDS011;696;48.546;9.896;2022-08-21T07:08:58;3.53;;;1.92;;
1402;SDS011;696;48.546;9.896;2022-08-21T07:11:23;4.22;;;1.90;;
1402;SDS011;696;48.546;9.896;2022-08-21T07:13:50;7.28;;;2.75;;
1402;SDS011;696;48.546;9.896;2022-08-21T07:16:18;3.33;;;2.30;;
1402;SDS011;696;48.546;9.896;2022-08-21T07:18:44;5.65;;;2.58;;
1402;SDS011;696;48.546;9.896;2022-08-21T07:21:09;7.03;;;2.22;;
1402;SDS011;696;48.546;9.896;2022-08-21T07:23:37;4.20;;;2.40;;
1402;SDS011;696;48.546;9.896;2022-08-21T07:26:04;4.95;;;2.45;;
1402;SDS011;696;48.546;9.896;2022-08-21T07:28:30;5.10;;;1.88;;
1402;SDS011;696;48.546;9.896;2022-08-21T07:30:56;4.07;;;2.28;;
1402;SDS011;696;48.546;9.896;2022-08-21T07:33:23;4.97;;;2.65;;
1402;SDS011;696;48.546;9.896;2022-08-21T07:35:49;3.90;;;2.08;;
1402;SDS011;696;48.546;9.896;2022-08-21T07:38:14;3.63;;;2.15;;
1402;SDS011;696;48.546;9.896;2022-08-21T07:40:40;1.60;;;1.33;;
1402;SDS011;696;48.546;9.896;2022-08-21T07:43:05;2.88;;;1.50;;
1402;SDS011;696;48.546;9.896;2022-08-21T07:45:31;4.95;;;1.67;;
1402;SDS011;696;48.546;9.896;2022-08-21T07:47:57;3.63;;;1.73;;
1402;SDS011;696;48.546;9.896;2022-08-21T07:50:22;4.05;;;1.40;;
1402;SDS011;696;48.546;9.896;2022-08-21T07:52:49;4.72;;;2.03;;
1402;SDS011;696;48.546;9.896;2022-08-21T07:55:17;2.83;;;1.58;;
1402;SDS011;696;48.546;9.896;2022-08-21T07:57:43;2.15;;;1.38;;
1402;SDS011;696;48.546;9.896;2022-08-21T08:00:11;3.78;;;2.13;;
1402;SDS011;696;48.546;9.896;2022-08-21T08:02:39;8.25;;;1.95;;
1402;SDS011;696;48.546;9.896;2022-08-21T08:05:06;3.13;;;1.65;;
1402;SDS011;696;48.546;9.896;2022-08-21T08:07:34;3.90;;;1.90;;
1402;SDS011;696;48.546;9.896;2022-08-21T08:10:00;4.00;;;1.58;;
1402;SDS011;696;48.546;9.896;2022-08-21T08:12:26;5.10;;;1.20;;
1402;SDS011;696;48.546;9.896;2022-08-21T08:14:55;3.00;;;1.73;;
1402;SDS011;696;48.546;9.896;2022-08-21T08:17:21;3.78;;;1.60;;
1402;SDS011;696;48.546;9.896;2022-08-21T08:19:48;2.03;;;1.30;;
1402;SDS011;696;48.546;9.896;2022-08-21T08:22:15;2.10;;;1.48;;
1402;SDS011;696;48.546;9.896;2022-08-21T08:24:42;2.35;;;1.38;;
1402;SDS011;696;48.546;9.896;2022-08-21T08:27:07;4.53;;;1.70;;
1402;SDS011;696;48.546;9.896;2022-08-21T08:29:33;3.83;;;1.45;;
1402;SDS011;696;48.546;9.896;2022-08-21T08:31:58;4.53;;;2.20;;
1402;SDS011;696;48.546;9.896;2022-08-21T08:34:24;8.95;;;1.52;;
1402;SDS011;696;48.546;9.896;2022-08-21T08:36:49;2.35;;;1.20;;
1402;SDS011;696;48.546;9.896;2022-08-21T08:39:15;2.47;;;1.45;;
1402;SDS011;696;48.546;9.896;2022-08-21T08:41:40;4.70;;;1.55;;
1402;SDS011;696;48.546;9.896;2022-08-21T08:44:06;3.90;;;1.85;;
1402;SDS011;696;48.546;9.896;2022-08-21T08:49:30;2.40;;;1.20;;
1402;SDS011;696;48.546;9.896;2022-08-21T08:55:12;2.28;;;0.95;;
1402;SDS011;696;48.546;9.896;2022-08-21T08:57:45;3.47;;;1.17;;
1402;SDS011;696;48.546;9.896;2022-08-21T09:00:13;1.15;;;0.85;;
1402;SDS011;696;48.546;9.896;2022-08-21T09:02:41;3.00;;;1.55;;
1402;SDS011;696;48.546;9.896;2022-08-21T09:05:09;9.23;;;1.25;;
1402;SDS011;696;48.546;9.896;2022-08-21T09:13:21;8.43;;;1.75;;
1402;SDS011;696;48.546;9.896;2022-08-21T09:21:30;3.22;;;1.17;;
1402;SDS011;696;48.546;9.896;2022-08-21T09:24:47;2.40;;;1.30;;
1402;SDS011;696;48.546;9.896;2022-08-21T09:29:37;3.50;;;1.30;;
1402;SDS011;696;48.546;9.896;2022-08-21T09:32:08;2.53;;;1.13;;
1402;SDS011;696;48.546;9.896;2022-08-21T09:34:36;11.27;;;1.33;;
1402;SDS011;696;48.546;9.896;2022-08-21T09:37:01;1.40;;;1.13;;
1402;SDS011;696;48.546;9.896;2022-08-21T09:39:32;1.45;;;0.75;;
1402;SDS011;696;48.546;9.896;2022-08-21T09:42:06;3.10;;;1.17;;
1402;SDS011;696;48.546;9.896;2022-08-21T09:44:35;1.65;;;1.20;;
1402;SDS011;696;48.546;9.896;2022-08-21T09:47:05;4.47;;;1.40;;
1402;SDS011;696;48.546;9.896;2022-08-21T09:49:32;2.25;;;0.98;;
1402;SDS011;696;48.546;9.896;2022-08-21T09:51:59;2.92;;;0.90;;
1402;SDS011;696;48.546;9.896;2022-08-21T09:54:30;3.38;;;1.25;;
1402;SDS011;696;48.546;9.896;2022-08-21T09:56:58;8.18;;;1.25;;
1402;SDS011;696;48.546;9.896;2022-08-21T09:59:44;6.63;;;1.80;;
1402;SDS011;696;48.546;9.896;2022-08-21T10:05:06;1.73;;;1.15;;
1402;SDS011;696;48.546;9.896;2022-08-21T10:07:46;2.67;;;1.17;;
1402;SDS011;696;48.546;9.896;2022-08-21T10:16:05;1.13;;;0.90;;
1402;SDS011;696;48.546;9.896;2022-08-21T10:18:54;4.25;;;0.93;;
1402;SDS011;696;48.546;9.896;2022-08-21T10:21:38;4.70;;;1.40;;
1402;SDS011;696;48.546;9.896;2022-08-21T10:24:33;13.65;;;1.77;;
1402;SDS011;696;48.546;9.896;2022-08-21T10:35:31;3.10;;;1.38;;
1402;SDS011;696;48.546;9.896;2022-08-21T10:41:00;3.83;;;1.15;;
1402;SDS011;696;48.546;9.896;2022-08-21T10:43:53;1.65;;;0.90;;
1402;SDS011;696;48.546;9.896;2022-08-21T10:56:49;2.33;;;0.97;;
1402;SDS011;696;48.546;9.896;2022-08-21T10:59:30;1.40;;;0.88;;
1402;SDS011;696;48.546;9.896;2022-08-21T11:02:03;1.45;;;0.88;;
1402;SDS011;696;48.546;9.896;2022-08-21T11:04:48;0.70;;;0.70;;
1402;SDS011;696;48.546;9.896;2022-08-21T11:07:19;1.33;;;0.90;;
1402;SDS011;696;48.546;9.896;2022-08-21T11:09:47;1.80;;;1.10;;
1402;SDS011;696;48.546;9.896;2022-08-21T11:20:43;2.72;;;1.25;;
1402;SDS011;696;48.546;9.896;2022-08-21T11:23:16;1.35;;;0.80;;
1402;SDS011;696;48.546;9.896;2022-08-21T11:28:16;5.63;;;1.60;;
1402;SDS011;696;48.546;9.896;2022-08-21T11:41:37;1.63;;;0.80;;
1402;SDS011;696;48.546;9.896;2022-08-21T11:44:09;2.03;;;0.85;;
1402;SDS011;696;48.546;9.896;2022-08-21T11:54:56;7.53;;;0.60;;
1402;SDS011;696;48.546;9.896;2022-08-21T11:57:32;1.05;;;0.70;;
1402;SDS011;696;48.546;9.896;2022-08-21T12:02:33;2.65;;;1.02;;
1402;SDS011;696;48.546;9.896;2022-08-21T12:05:03;11.82;;;0.80;;
1402;SDS011;696;48.546;9.896;2022-08-21T12:07:33;1.65;;;0.73;;
1402;SDS011;696;48.546;9.896;2022-08-21T12:10:32;2.30;;;1.30;;
1402;SDS011;696;48.546;9.896;2022-08-21T12:13:05;3.22;;;0.98;;
1402;SDS011;696;48.546;9.896;2022-08-21T12:15:33;10.70;;;1.17;;
1402;SDS011;696;48.546;9.896;2022-08-21T12:18:00;0.55;;;0.52;;
1402;SDS011;696;48.546;9.896;2022-08-21T12:25:44;0.98;;;0.85;;
1402;SDS011;696;48.546;9.896;2022-08-21T12:28:14;0.80;;;0.60;;
1402;SDS011;696;48.546;9.896;2022-08-21T12:30:42;2.70;;;1.23;;
1402;SDS011;696;48.546;9.896;2022-08-21T12:38:33;2.17;;;0.40;;
1402;SDS011;696;48.546;9.896;2022-08-21T12:43:57;1.75;;;0.77;;
1402;SDS011;696;48.546;9.896;2022-08-21T12:46:32;2.83;;;0.60;;
1402;SDS011;696;48.546;9.896;2022-08-21T12:49:08;1.20;;;0.40;;
1402;SDS011;696;48.546;9.896;2022-08-21T12:54:26;1.65;;;0.68;;
1402;SDS011;696;48.546;9.896;2022-08-21T12:57:00;2.25;;;0.55;;
1402;SDS011;696;48.546;9.896;2022-08-21T12:59:27;1.50;;;0.77;;
1402;SDS011;696;48.546;9.896;2022-08-21T13:01:53;3.50;;;0.65;;
1402;SDS011;696;48.546;9.896;2022-08-21T13:04:21;1.92;;;0.43;;
1402;SDS011;696;48.546;9.896;2022-08-21T13:06:50;0.95;;;0.47;;
1402;SDS011;696;48.546;9.896;2022-08-21T13:09:19;0.60;;;0.50;;
1402;SDS011;696;48.546;9.896;2022-08-21T13:11:48;0.75;;;0.52;;
1402;SDS011;696;48.546;9.896;2022-08-21T13:14:17;2.88;;;0.75;;
1402;SDS011;696;48.546;9.896;2022-08-21T13:16:52;3.97;;;0.93;;
1402;SDS011;696;48.546;9.896;2022-08-21T13:19:22;1.80;;;1.02;;
1402;SDS011;696;48.546;9.896;2022-08-21T13:21:48;1.08;;;0.38;;
1402;SDS011;696;48.546;9.896;2022-08-21T13:24:22;0.73;;;0.60;;
1402;SDS011;696;48.546;9.896;2022-08-21T13:26:52;1.95;;;0.52;;
1402;SDS011;696;48.546;9.896;2022-08-21T13:29:19;0.50;;;0.50;;
1402;SDS011;696;48.546;9.896;2022-08-21T13:31:48;1.50;;;0.75;;
1402;SDS011;696;48.546;9.896;2022-08-21T13:34:15;1.60;;;0.60;;
1402;SDS011;696;48.546;9.896;2022-08-21T13:36:42;1.50;;;0.90;;
1402;SDS011;696;48.546;9.896;2022-08-21T13:39:09;3.72;;;1.40;;
1402;SDS011;696;48.546;9.896;2022-08-21T13:41:38;0.88;;;0.65;;
1402;SDS011;696;48.546;9.896;2022-08-21T13:44:05;3.15;;;1.02;;
1402;SDS011;696;48.546;9.896;2022-08-21T13:46:39;2.47;;;0.40;;
1402;SDS011;696;48.546;9.896;2022-08-21T13:49:05;1.02;;;0.70;;
1402;SDS011;696;48.546;9.896;2022-08-21T13:51:31;7.95;;;0.77;;
1402;SDS011;696;48.546;9.896;2022-08-21T13:53:57;2.20;;;0.88;;
1402;SDS011;696;48.546;9.896;2022-08-21T13:56:40;1.50;;;0.88;;
1402;SDS011;696;48.546;9.896;2022-08-21T13:59:07;4.28;;;0.82;;
1402;SDS011;696;48.546;9.896;2022-08-21T14:01:33;0.60;;;0.60;;
1402;SDS011;696;48.546;9.896;2022-08-21T14:04:16;1.63;;;0.50;;
1402;SDS011;696;48.546;9.896;2022-08-21T14:06:45;3.08;;;1.00;;
1402;SDS011;696;48.546;9.896;2022-08-21T14:09:33;0.57;;;0.57;;
1402;SDS011;696;48.546;9.896;2022-08-21T14:12:02;0.47;;;0.47;;
1402;SDS011;696;48.546;9.896;2022-08-21T14:14:37;9.00;;;0.85;;
1402;SDS011;696;48.546;9.896;2022-08-21T14:17:05;1.33;;;0.80;;
1402;SDS011;696;48.546;9.896;2022-08-21T14:27:37;1.55;;;0.73;;
1402;SDS011;696;48.546;9.896;2022-08-21T14:30:49;0.40;;;0.40;;
1402;SDS011;696;48.546;9.896;2022-08-21T14:32:58;3.97;;;0.43;;
1402;SDS011;696;48.546;9.896;2022-08-21T14:35:23;1.88;;;0.65;;
1402;SDS011;696;48.546;9.896;2022-08-21T14:37:49;1.10;;;0.90;;
1402;SDS011;696;48.546;9.896;2022-08-21T14:40:16;29.50;;;1.50;;
1402;SDS011;696;48.546;9.896;2022-08-21T14:42:42;1.83;;;0.63;;
1402;SDS011;696;48.546;9.896;2022-08-21T14:45:27;2.08;;;0.60;;
1402;SDS011;696;48.546;9.896;2022-08-21T14:47:55;3.42;;;0.90;;
1402;SDS011;696;48.546;9.896;2022-08-21T14:50:21;1.25;;;0.73;;
1402;SDS011;696;48.546;9.896;2022-08-21T14:52:47;0.35;;;0.32;;
1402;SDS011;696;48.546;9.896;2022-08-21T14:55:14;4.38;;;0.85;;
1402;SDS011;696;48.546;9.896;2022-08-21T14:57:40;1.17;;;0.70;;
1402;SDS011;696;48.546;9.896;2022-08-21T15:00:08;0.73;;;0.68;;
1402;SDS011;696;48.546;9.896;2022-08-21T15:02:35;1.58;;;0.50;;
1402;SDS011;696;48.546;9.896;2022-08-21T15:05:00;2.08;;;0.50;;
1402;SDS011;696;48.546;9.896;2022-08-21T15:07:26;4.60;;;0.93;;
1402;SDS011;696;48.546;9.896;2022-08-21T15:09:52;1.85;;;0.40;;
1402;SDS011;696;48.546;9.896;2022-08-21T15:12:18;0.60;;;0.57;;
1402;SDS011;696;48.546;9.896;2022-08-21T15:14:43;1.67;;;0.60;;
1402;SDS011;696;48.546;9.896;2022-08-21T15:17:09;1.10;;;0.70;;
1402;SDS011;696;48.546;9.896;2022-08-21T15:19:35;0.35;;;0.35;;
1402;SDS011;696;48.546;9.896;2022-08-21T15:22:00;1.70;;;0.63;;
1402;SDS011;696;48.546;9.896;2022-08-21T15:24:26;1.60;;;0.73;;
1402;SDS011;696;48.546;9.896;2022-08-21T15:26:52;1.63;;;0.73;;
1402;SDS011;696;48.546;9.896;2022-08-21T15:29:18;1.42;;;0.80;;
1402;SDS011;696;48.546;9.896;2022-08-21T15:32:18;7.38;;;0.77;;
1402;SDS011;696;48.546;9.896;2022-08-21T15:34:49;1.23;;;0.50;;
1402;SDS011;696;48.546;9.896;2022-08-21T15:37:16;1.40;;;0.77;;
1402;SDS011;696;48.546;9.896;2022-08-21T15:39:41;0.40;;;0.40;;
1402;SDS011;696;48.546;9.896;2022-08-21T15:42:07;1.35;;;0.80;;
1402;SDS011;696;48.546;9.896;2022-08-21T15:44:33;2.53;;;0.50;;
1402;SDS011;696;48.546;9.896;2022-08-21T15:46:58;0.60;;;0.60;;
1402;SDS011;696;48.546;9.896;2022-08-21T15:49:24;0.50;;;0.50;;
1402;SDS011;696;48.546;9.896;2022-08-21T15:51:49;1.45;;;0.73;;
1402;SDS011;696;48.546;9.896;2022-08-21T15:54:15;0.82;;;0.70;;
1402;SDS011;696;48.546;9.896;2022-08-21T15:56:40;1.02;;;0.82;;
1402;SDS011;696;48.546;9.896;2022-08-21T15:59:18;2.05;;;0.85;;
1402;SDS011;696;48.546;9.896;2022-08-21T16:01:47;1.42;;;0.85;;
1402;SDS011;696;48.546;9.896;2022-08-21T16:04:15;1.25;;;0.88;;
1402;SDS011;696;48.546;9.896;2022-08-21T16:06:45;0.77;;;0.60;;
1402;SDS011;696;48.546;9.896;2022-08-21T16:09:10;3.83;;;0.98;;
1402;SDS011;696;48.546;9.896;2022-08-21T16:11:36;3.42;;;1.27;;
1402;SDS011;696;48.546;9.896;2022-08-21T16:14:01;0.70;;;0.50;;
1402;SDS011;696;48.546;9.896;2022-08-21T16:16:26;2.88;;;0.73;;
1402;SDS011;696;48.546;9.896;2022-08-21T16:18:53;1.73;;;0.90;;
1402;SDS011;696;48.546;9.896;2022-08-21T16:21:18;0.40;;;0.40;;
1402;SDS011;696;48.546;9.896;2022-08-21T16:23:44;0.75;;;0.65;;
1402;SDS011;696;48.546;9.896;2022-08-21T16:26:11;0.98;;;0.60;;
1402;SDS011;696;48.546;9.896;2022-08-21T16:28:37;0.30;;;0.30;;
1402;SDS011;696;48.546;9.896;2022-08-21T16:31:03;0.47;;;0.40;;
1402;SDS011;696;48.546;9.896;2022-08-21T16:33:33;1.02;;;0.52;;
1402;SDS011;696;48.546;9.896;2022-08-21T16:36:01;0.35;;;0.35;;
1402;SDS011;696;48.546;9.896;2022-08-21T16:38:27;0.40;;;0.40;;
1402;SDS011;696;48.546;9.896;2022-08-21T16:40:53;2.30;;;0.95;;
1402;SDS011;696;48.546;9.896;2022-08-21T16:43:19;0.63;;;0.60;;
1402;SDS011;696;48.546;9.896;2022-08-21T16:45:47;0.73;;;0.63;;
1402;SDS011;696;48.546;9.896;2022-08-21T16:48:12;1.48;;;0.88;;
1402;SDS011;696;48.546;9.896;2022-08-21T16:50:37;1.35;;;0.82;;
1402;SDS011;696;48.546;9.896;2022-08-21T16:53:03;3.17;;;0.45;;
1402;SDS011;696;48.546;9.896;2022-08-21T16:55:29;2.22;;;0.40;;
1402;SDS011;696;48.546;9.896;2022-08-21T16:57:54;4.45;;;0.63;;
1402;SDS011;696;48.546;9.896;2022-08-21T17:00:20;1.17;;;0.65;;
1402;SDS011;696;48.546;9.896;2022-08-21T17:02:47;0.80;;;0.57;;
1402;SDS011;696;48.546;9.896;2022-08-21T17:05:14;0.40;;;0.40;;
1402;SDS011;696;48.546;9.896;2022-08-21T17:07:41;2.67;;;0.82;;
1402;SDS011;696;48.546;9.896;2022-08-21T17:10:08;0.68;;;0.68;;
1402;SDS011;696;48.546;9.896;2022-08-21T17:12:34;1.08;;;0.60;;
1402;SDS011;696;48.546;9.896;2022-08-21T17:15:01;5.97;;;0.60;;
1402;SDS011;696;48.546;9.896;2022-08-21T17:17:32;1.10;;;0.75;;
1402;SDS011;696;48.546;9.896;2022-08-21T17:19:58;1.95;;;0.93;;
1402;SDS011;696;48.546;9.896;2022-08-21T17:22:23;1.63;;;0.88;;
1402;SDS011;696;48.546;9.896;2022-08-21T17:24:48;2.80;;;1.08;;
1402;SDS011;696;48.546;9.896;2022-08-21T17:27:14;0.93;;;0.70;;